sensor_id;sensor_type;location;lat;lon;timestamp;temperature;humidity
19152;DHT22;9708;53.114;9.388;2023-09-19T00:00:56;16.70;99.90
19152;DHT22;9708;53.114;9.388;2023-09-19T00:03:23;16.60;99.90
19152;DHT22;9708;53.114;9.388;2023-09-19T00:05:51;16.60;99.90
19152;DHT22;9708;53.114;9.388;2023-09-19T00:08:18;16.70;99.90
19152;DHT22;9708;53.114;9.388;2023-09-19T00:10:48;16.60;99.90
19152;DHT22;9708;53.114;9.388;2023-09-19T00:13:15;16.60;99.90
19152;DHT22;9708;53.114;9.388;2023-09-19T00:15:44;16.70;99.90
19152;DHT22;9708;53.114;9.388;2023-09-19T00:18:14;16.70;99.90
19152;DHT22;9708;53.114;9.388;2023-09-19T00:20:42;16.60;99.90
19152;DHT22;9708;53.114;9.388;2023-09-19T00:23:14;16.60;99.90
19152;DHT22;9708;53.114;9.388;2023-09-19T00:25:41;16.60;99.90
19152;DHT22;9708;53.114;9.388;2023-09-19T00:28:07;16.60;99.90
19152;DHT22;9708;53.114;9.388;2023-09-19T00:30:35;16.60;99.90
19152;DHT22;9708;53.114;9.388;2023-09-19T00:33:04;16.60;99.90
19152;DHT22;9708;53.114;9.388;2023-09-19T00:35:32;16.70;99.90
19152;DHT22;9708;53.114;9.388;2023-09-19T00:37:59;16.80;99.90
19152;DHT22;9708;53.114;9.388;2023-09-19T00:40:27;16.70;99.90
19152;DHT22;9708;53.114;9.388;2023-09-19T00:42:57;16.70;99.90
19152;DHT22;9708;53.114;9.388;2023-09-19T00:45:25;16.60;99.90
19152;DHT22;9708;53.114;9.388;2023-09-19T00:47:54;16.70;99.90
19152;DHT22;9708;53.114;9.388;2023-09-19T00:50:23;16.70;99.90
19152;DHT22;9708;53.114;9.388;2023-09-19T00:52:54;16.60;99.90
19152;DHT22;9708;53.114;9.388;2023-09-19T00:55:24;16.70;99.90
19152;DHT22;9708;53.114;9.388;2023-09-19T00:57:52;16.60;99.90
19152;DHT22;9708;53.114;9.388;2023-09-19T01:00:19;16.50;99.90
19152;DHT22;9708;53.114;9.388;2023-09-19T01:02:47;16.50;99.90
19152;DHT22;9708;53.114;9.388;2023-09-19T01:05:14;16.40;99.90
19152;DHT22;9708;53.114;9.388;2023-09-19T01:07:41;16.40;99.90
19152;DHT22;9708;53.114;9.388;2023-09-19T01:10:11;16.50;99.90
19152;DHT22;9708;53.114;9.388;2023-09-19T01:12:48;16.50;99.90
19152;DHT22;9708;53.114;9.388;2023-09-19T01:15:25;16.50;99.90
19152;DHT22;9708;53.114;9.388;2023-09-19T01:18:00;16.60;99.90
19152;DHT22;9708;53.114;9.388;2023-09-19T01:20:37;16.60;99.90
19152;DHT22;9708;53.114;9.388;2023-09-19T01:23:12;16.70;99.90
19152;DHT22;9708;53.114;9.388;2023-09-19T01:26:05;16.60;99.90
19152;DHT22;9708;53.114;9.388;2023-09-19T01:28:43;16.60;99.90
19152;DHT22;9708;53.114;9.388;2023-09-19T01:31:15;16.60;99.90
19152;DHT22;9708;53.114;9.388;2023-09-19T01:33:55;16.50;99.90
19152;DHT22;9708;53.114;9.388;2023-09-19T01:36:25;16.50;99.90
19152;DHT22;9708;53.114;9.388;2023-09-19T01:38:52;16.50;99.90
19152;DHT22;9708;53.114;9.388;2023-09-19T01:41:26;16.50;99.90
19152;DHT22;9708;53.114;9.388;2023-09-19T01:43:56;16.50;99.90
19152;DHT22;9708;53.114;9.388;2023-09-19T01:46:30;16.40;99.90
19152;DHT22;9708;53.114;9.388;2023-09-19T01:49:06;16.60;99.90
19152;DHT22;9708;53.114;9.388;2023-09-19T01:51:46;16.60;99.90
19152;DHT22;9708;53.114;9.388;2023-09-19T01:54:22;16.60;99.90
19152;DHT22;9708;53.114;9.388;2023-09-19T01:56:57;16.60;99.90
19152;DHT22;9708;53.114;9.388;2023-09-19T01:59:34;16.70;99.90
19152;DHT22;9708;53.114;9.388;2023-09-19T02:02:03;16.60;99.90
19152;DHT22;9708;53.114;9.388;2023-09-19T02:04:32;16.50;99.90
19152;DHT22;9708;53.114;9.388;2023-09-19T02:07:00;16.40;99.90
19152;DHT22;9708;53.114;9.388;2023-09-19T02:09:28;16.40;99.90
19152;DHT22;9708;53.114;9.388;2023-09-19T02:11:54;16.30;99.90
19152;DHT22;9708;53.114;9.388;2023-09-19T02:14:22;16.20;99.90
19152;DHT22;9708;53.114;9.388;2023-09-19T02:16:49;16.10;99.90
19152;DHT22;9708;53.114;9.388;2023-09-19T02:19:17;16.10;99.90
19152;DHT22;9708;53.114;9.388;2023-09-19T02:21:44;16.10;99.90
19152;DHT22;9708;53.114;9.388;2023-09-19T02:24:10;16.00;99.90
19152;DHT22;9708;53.114;9.388;2023-09-19T02:26:38;16.00;99.90
19152;DHT22;9708;53.114;9.388;2023-09-19T02:29:04;15.90;99.90
19152;DHT22;9708;53.114;9.388;2023-09-19T02:31:31;16.00;99.90
19152;DHT22;9708;53.114;9.388;2023-09-19T02:33:58;15.80;99.90
19152;DHT22;9708;53.114;9.388;2023-09-19T02:36:27;15.80;99.90
19152;DHT22;9708;53.114;9.388;2023-09-19T02:38:55;15.70;99.90
19152;DHT22;9708;53.114;9.388;2023-09-19T02:41:22;15.60;99.90
19152;DHT22;9708;53.114;9.388;2023-09-19T02:43:49;15.60;99.90
19152;DHT22;9708;53.114;9.388;2023-09-19T02:46:16;15.50;99.90
19152;DHT22;9708;53.114;9.388;2023-09-19T02:48:43;15.50;99.90
19152;DHT22;9708;53.114;9.388;2023-09-19T02:51:10;15.40;99.90
19152;DHT22;9708;53.114;9.388;2023-09-19T02:53:38;15.50;99.90
19152;DHT22;9708;53.114;9.388;2023-09-19T02:56:05;15.50;99.90
19152;DHT22;9708;53.114;9.388;2023-09-19T02:58:32;15.50;99.90
19152;DHT22;9708;53.114;9.388;2023-09-19T03:01:08;15.50;99.90
19152;DHT22;9708;53.114;9.388;2023-09-19T03:03:35;15.50;99.90
19152;DHT22;9708;53.114;9.388;2023-09-19T03:06:03;15.50;99.90
19152;DHT22;9708;53.114;9.388;2023-09-19T03:08:30;15.50;99.90
19152;DHT22;9708;53.114;9.388;2023-09-19T03:10:58;15.50;99.90
19152;DHT22;9708;53.114;9.388;2023-09-19T03:13:26;15.40;99.90
19152;DHT22;9708;53.114;9.388;2023-09-19T03:15:54;15.40;99.90
19152;DHT22;9708;53.114;9.388;2023-09-19T03:18:22;15.40;99.90
19152;DHT22;9708;53.114;9.388;2023-09-19T03:20:53;15.40;99.90
19152;DHT22;9708;53.114;9.388;2023-09-19T03:23:20;15.40;99.90
19152;DHT22;9708;53.114;9.388;2023-09-19T03:25:46;15.40;99.90
19152;DHT22;9708;53.114;9.388;2023-09-19T03:28:14;15.50;99.90
19152;DHT22;9708;53.114;9.388;2023-09-19T03:30:41;15.40;99.90
19152;DHT22;9708;53.114;9.388;2023-09-19T03:33:09;15.30;99.90
19152;DHT22;9708;53.114;9.388;2023-09-19T03:35:37;15.30;99.90
19152;DHT22;9708;53.114;9.388;2023-09-19T03:38:05;15.20;99.90
19152;DHT22;9708;53.114;9.388;2023-09-19T03:40:32;15.10;99.90
19152;DHT22;9708;53.114;9.388;2023-09-19T03:43:00;15.00;99.90
19152;DHT22;9708;53.114;9.388;2023-09-19T03:45:28;15.00;99.90
19152;DHT22;9708;53.114;9.388;2023-09-19T03:47:55;15.00;99.90
19152;DHT22;9708;53.114;9.388;2023-09-19T03:50:22;14.90;99.90
19152;DHT22;9708;53.114;9.388;2023-09-19T03:52:49;14.90;99.90
19152;DHT22;9708;53.114;9.388;2023-09-19T03:55:16;14.90;99.90
19152;DHT22;9708;53.114;9.388;2023-09-19T03:57:47;14.90;99.90
19152;DHT22;9708;53.114;9.388;2023-09-19T04:00:14;14.80;99.90
19152;DHT22;9708;53.114;9.388;2023-09-19T04:02:47;14.80;99.90
19152;DHT22;9708;53.114;9.388;2023-09-19T04:05:14;14.70;99.90
19152;DHT22;9708;53.114;9.388;2023-09-19T04:07:41;14.70;99.90
19152;DHT22;9708;53.114;9.388;2023-09-19T04:10:09;14.70;99.90
19152;DHT22;9708;53.114;9.388;2023-09-19T04:12:37;14.60;99.90
19152;DHT22;9708;53.114;9.388;2023-09-19T04:15:04;14.60;99.90
19152;DHT22;9708;53.114;9.388;2023-09-19T04:17:31;14.60;99.90
19152;DHT22;9708;53.114;9.388;2023-09-19T04:20:00;14.60;99.90
19152;DHT22;9708;53.114;9.388;2023-09-19T04:22:29;14.60;99.90
19152;DHT22;9708;53.114;9.388;2023-09-19T04:24:56;14.60;99.90
19152;DHT22;9708;53.114;9.388;2023-09-19T04:27:22;14.60;99.90
19152;DHT22;9708;53.114;9.388;2023-09-19T04:29:49;14.70;99.90
19152;DHT22;9708;53.114;9.388;2023-09-19T04:32:16;14.70;99.90
19152;DHT22;9708;53.114;9.388;2023-09-19T04:34:43;14.60;99.90
19152;DHT22;9708;53.114;9.388;2023-09-19T04:37:11;14.50;99.90
19152;DHT22;9708;53.114;9.388;2023-09-19T04:39:40;14.50;99.90
19152;DHT22;9708;53.114;9.388;2023-09-19T04:42:07;14.50;99.90
19152;DHT22;9708;53.114;9.388;2023-09-19T04:44:33;14.50;99.90
19152;DHT22;9708;53.114;9.388;2023-09-19T04:47:01;14.50;99.90
19152;DHT22;9708;53.114;9.388;2023-09-19T04:49:28;14.50;99.90
19152;DHT22;9708;53.114;9.388;2023-09-19T04:51:55;14.60;99.90
19152;DHT22;9708;53.114;9.388;2023-09-19T04:54:23;14.60;99.90
19152;DHT22;9708;53.114;9.388;2023-09-19T04:56:50;14.50;99.90
19152;DHT22;9708;53.114;9.388;2023-09-19T04:59:16;14.50;99.90
19152;DHT22;9708;53.114;9.388;2023-09-19T05:01:43;14.50;99.90
19152;DHT22;9708;53.114;9.388;2023-09-19T05:04:12;14.50;99.90
19152;DHT22;9708;53.114;9.388;2023-09-19T05:06:39;14.50;99.90
19152;DHT22;9708;53.114;9.388;2023-09-19T05:09:06;14.40;99.90
19152;DHT22;9708;53.114;9.388;2023-09-19T05:11:35;14.40;99.90
19152;DHT22;9708;53.114;9.388;2023-09-19T05:14:03;14.30;99.90
19152;DHT22;9708;53.114;9.388;2023-09-19T05:16:30;14.30;99.90
19152;DHT22;9708;53.114;9.388;2023-09-19T05:18:58;14.30;99.90
19152;DHT22;9708;53.114;9.388;2023-09-19T05:21:25;14.40;99.90
19152;DHT22;9708;53.114;9.388;2023-09-19T05:23:54;14.30;99.90
19152;DHT22;9708;53.114;9.388;2023-09-19T05:26:21;14.30;99.90
19152;DHT22;9708;53.114;9.388;2023-09-19T05:28:49;14.40;99.90
19152;DHT22;9708;53.114;9.388;2023-09-19T05:31:15;14.40;99.90
19152;DHT22;9708;53.114;9.388;2023-09-19T05:33:42;14.40;99.90
19152;DHT22;9708;53.114;9.388;2023-09-19T05:36:09;14.40;99.90
19152;DHT22;9708;53.114;9.388;2023-09-19T05:38:37;14.40;99.90
19152;DHT22;9708;53.114;9.388;2023-09-19T05:41:06;14.60;99.90
19152;DHT22;9708;53.114;9.388;2023-09-19T05:43:33;14.60;99.90
19152;DHT22;9708;53.114;9.388;2023-09-19T05:46:04;14.70;99.90
19152;DHT22;9708;53.114;9.388;2023-09-19T05:48:31;14.70;99.90
19152;DHT22;9708;53.114;9.388;2023-09-19T05:50:58;14.90;99.90
19152;DHT22;9708;53.114;9.388;2023-09-19T05:53:27;15.00;99.90
19152;DHT22;9708;53.114;9.388;2023-09-19T05:55:54;15.10;99.90
19152;DHT22;9708;53.114;9.388;2023-09-19T05:58:21;15.20;99.90
19152;DHT22;9708;53.114;9.388;2023-09-19T06:00:48;15.30;99.90
19152;DHT22;9708;53.114;9.388;2023-09-19T06:03:16;15.40;99.90
19152;DHT22;9708;53.114;9.388;2023-09-19T06:05:44;15.50;99.90
19152;DHT22;9708;53.114;9.388;2023-09-19T06:08:11;15.50;99.90
19152;DHT22;9708;53.114;9.388;2023-09-19T06:10:38;15.70;99.90
19152;DHT22;9708;53.114;9.388;2023-09-19T06:13:05;15.90;99.90
19152;DHT22;9708;53.114;9.388;2023-09-19T06:15:35;15.90;99.90
19152;DHT22;9708;53.114;9.388;2023-09-19T06:18:02;16.00;99.90
19152;DHT22;9708;53.114;9.388;2023-09-19T06:20:31;16.20;99.90
19152;DHT22;9708;53.114;9.388;2023-09-19T06:22:58;16.30;99.90
19152;DHT22;9708;53.114;9.388;2023-09-19T06:25:27;16.60;99.90
19152;DHT22;9708;53.114;9.388;2023-09-19T06:27:54;16.50;99.90
19152;DHT22;9708;53.114;9.388;2023-09-19T06:30:22;16.70;99.90
19152;DHT22;9708;53.114;9.388;2023-09-19T06:32:49;17.00;99.90
19152;DHT22;9708;53.114;9.388;2023-09-19T06:35:22;17.00;99.90
19152;DHT22;9708;53.114;9.388;2023-09-19T06:37:50;17.10;99.90
19152;DHT22;9708;53.114;9.388;2023-09-19T06:40:18;17.30;99.90
19152;DHT22;9708;53.114;9.388;2023-09-19T06:42:46;17.30;99.90
19152;DHT22;9708;53.114;9.388;2023-09-19T06:45:14;17.30;99.90
19152;DHT22;9708;53.114;9.388;2023-09-19T06:47:43;17.30;99.90
19152;DHT22;9708;53.114;9.388;2023-09-19T06:50:10;17.00;99.90
19152;DHT22;9708;53.114;9.388;2023-09-19T06:52:39;16.90;99.90
19152;DHT22;9708;53.114;9.388;2023-09-19T06:55:08;16.70;99.90
19152;DHT22;9708;53.114;9.388;2023-09-19T06:57:35;16.50;99.90
19152;DHT22;9708;53.114;9.388;2023-09-19T07:00:02;16.50;99.90
19152;DHT22;9708;53.114;9.388;2023-09-19T07:02:33;16.40;99.90
19152;DHT22;9708;53.114;9.388;2023-09-19T07:04:59;16.40;99.90
19152;DHT22;9708;53.114;9.388;2023-09-19T07:07:26;16.40;99.90
19152;DHT22;9708;53.114;9.388;2023-09-19T07:09:54;16.60;99.90
19152;DHT22;9708;53.114;9.388;2023-09-19T07:12:23;16.50;99.90
19152;DHT22;9708;53.114;9.388;2023-09-19T07:14:50;16.50;99.90
19152;DHT22;9708;53.114;9.388;2023-09-19T07:17:17;16.60;99.90
19152;DHT22;9708;53.114;9.388;2023-09-19T07:19:44;16.80;99.90
19152;DHT22;9708;53.114;9.388;2023-09-19T07:22:11;17.50;99.90
19152;DHT22;9708;53.114;9.388;2023-09-19T07:24:38;17.70;99.90
19152;DHT22;9708;53.114;9.388;2023-09-19T07:27:05;18.10;99.90
19152;DHT22;9708;53.114;9.388;2023-09-19T07:29:34;18.30;99.90
19152;DHT22;9708;53.114;9.388;2023-09-19T07:32:00;18.60;99.90
19152;DHT22;9708;53.114;9.388;2023-09-19T07:34:27;18.60;99.90
19152;DHT22;9708;53.114;9.388;2023-09-19T07:36:54;18.30;99.90
19152;DHT22;9708;53.114;9.388;2023-09-19T07:39:22;18.50;99.90
19152;DHT22;9708;53.114;9.388;2023-09-19T07:41:49;18.80;99.90
19152;DHT22;9708;53.114;9.388;2023-09-19T07:44:16;19.50;99.90
19152;DHT22;9708;53.114;9.388;2023-09-19T07:46:44;20.00;99.90
19152;DHT22;9708;53.114;9.388;2023-09-19T07:49:11;19.60;99.90
19152;DHT22;9708;53.114;9.388;2023-09-19T07:51:38;19.30;99.90
19152;DHT22;9708;53.114;9.388;2023-09-19T07:54:05;19.10;99.90
19152;DHT22;9708;53.114;9.388;2023-09-19T07:56:33;18.80;99.90
19152;DHT22;9708;53.114;9.388;2023-09-19T07:59:00;18.90;99.90
19152;DHT22;9708;53.114;9.388;2023-09-19T08:01:27;19.30;99.90
19152;DHT22;9708;53.114;9.388;2023-09-19T08:03:55;19.10;99.90
19152;DHT22;9708;53.114;9.388;2023-09-19T08:06:22;19.40;99.90
19152;DHT22;9708;53.114;9.388;2023-09-19T08:08:50;19.70;99.90
19152;DHT22;9708;53.114;9.388;2023-09-19T08:11:19;19.80;99.90
19152;DHT22;9708;53.114;9.388;2023-09-19T08:13:47;20.50;99.90
19152;DHT22;9708;53.114;9.388;2023-09-19T08:16:14;20.40;99.90
19152;DHT22;9708;53.114;9.388;2023-09-19T08:18:41;20.60;99.90
19152;DHT22;9708;53.114;9.388;2023-09-19T08:21:11;20.30;99.90
19152;DHT22;9708;53.114;9.388;2023-09-19T08:23:41;20.60;99.90
19152;DHT22;9708;53.114;9.388;2023-09-19T08:26:08;21.30;99.90
19152;DHT22;9708;53.114;9.388;2023-09-19T08:28:35;21.50;99.90
19152;DHT22;9708;53.114;9.388;2023-09-19T08:31:02;22.10;99.90
19152;DHT22;9708;53.114;9.388;2023-09-19T08:33:31;22.10;99.90
19152;DHT22;9708;53.114;9.388;2023-09-19T08:35:58;21.90;99.90
19152;DHT22;9708;53.114;9.388;2023-09-19T08:38:27;22.40;99.90
19152;DHT22;9708;53.114;9.388;2023-09-19T08:40:57;22.60;99.90
19152;DHT22;9708;53.114;9.388;2023-09-19T08:43:24;23.10;99.90
19152;DHT22;9708;53.114;9.388;2023-09-19T08:45:51;23.50;99.90
19152;DHT22;9708;53.114;9.388;2023-09-19T08:48:23;23.30;99.90
19152;DHT22;9708;53.114;9.388;2023-09-19T08:50:53;22.10;99.90
19152;DHT22;9708;53.114;9.388;2023-09-19T08:53:34;21.60;99.90
19152;DHT22;9708;53.114;9.388;2023-09-19T08:56:03;21.10;99.90
19152;DHT22;9708;53.114;9.388;2023-09-19T08:58:41;20.90;99.90
19152;DHT22;9708;53.114;9.388;2023-09-19T09:01:13;20.90;99.90
19152;DHT22;9708;53.114;9.388;2023-09-19T09:03:42;21.30;99.90
19152;DHT22;9708;53.114;9.388;2023-09-19T09:06:13;21.50;99.90
19152;DHT22;9708;53.114;9.388;2023-09-19T09:08:43;21.40;99.90
19152;DHT22;9708;53.114;9.388;2023-09-19T09:11:11;21.50;99.90
19152;DHT22;9708;53.114;9.388;2023-09-19T09:13:38;21.50;99.90
19152;DHT22;9708;53.114;9.388;2023-09-19T09:16:06;21.70;99.90
19152;DHT22;9708;53.114;9.388;2023-09-19T09:18:33;21.90;99.90
19152;DHT22;9708;53.114;9.388;2023-09-19T09:21:00;22.00;99.90
19152;DHT22;9708;53.114;9.388;2023-09-19T09:23:27;21.90;99.90
19152;DHT22;9708;53.114;9.388;2023-09-19T09:25:57;22.10;99.90
19152;DHT22;9708;53.114;9.388;2023-09-19T09:28:29;21.70;99.90
19152;DHT22;9708;53.114;9.388;2023-09-19T09:30:56;22.20;99.90
19152;DHT22;9708;53.114;9.388;2023-09-19T09:33:23;22.10;99.90
19152;DHT22;9708;53.114;9.388;2023-09-19T09:35:52;22.40;99.90
19152;DHT22;9708;53.114;9.388;2023-09-19T09:38:20;22.40;99.90
19152;DHT22;9708;53.114;9.388;2023-09-19T09:40:47;22.40;99.90
19152;DHT22;9708;53.114;9.388;2023-09-19T09:43:30;22.50;99.90
19152;DHT22;9708;53.114;9.388;2023-09-19T09:46:12;23.00;99.90
19152;DHT22;9708;53.114;9.388;2023-09-19T09:48:57;22.60;99.90
19152;DHT22;9708;53.114;9.388;2023-09-19T09:51:42;22.50;99.90
19152;DHT22;9708;53.114;9.388;2023-09-19T09:54:13;22.60;99.90
19152;DHT22;9708;53.114;9.388;2023-09-19T09:56:54;22.80;99.90
19152;DHT22;9708;53.114;9.388;2023-09-19T09:59:44;22.10;99.90
19152;DHT22;9708;53.114;9.388;2023-09-19T10:02:13;22.20;99.90
19152;DHT22;9708;53.114;9.388;2023-09-19T10:04:40;21.80;99.90
19152;DHT22;9708;53.114;9.388;2023-09-19T10:07:27;22.20;99.90
19152;DHT22;9708;53.114;9.388;2023-09-19T10:09:58;22.30;99.90
19152;DHT22;9708;53.114;9.388;2023-09-19T10:12:38;22.50;99.90
19152;DHT22;9708;53.114;9.388;2023-09-19T10:15:07;21.80;99.90
19152;DHT22;9708;53.114;9.388;2023-09-19T10:17:36;22.00;99.90
19152;DHT22;9708;53.114;9.388;2023-09-19T10:20:10;21.70;99.90
19152;DHT22;9708;53.114;9.388;2023-09-19T10:22:43;21.70;99.90
19152;DHT22;9708;53.114;9.388;2023-09-19T10:25:24;21.40;99.90
19152;DHT22;9708;53.114;9.388;2023-09-19T10:27:54;21.20;99.90
19152;DHT22;9708;53.114;9.388;2023-09-19T10:30:24;21.80;99.90
19152;DHT22;9708;53.114;9.388;2023-09-19T10:33:00;21.20;99.90
19152;DHT22;9708;53.114;9.388;2023-09-19T10:35:27;20.70;99.90
19152;DHT22;9708;53.114;9.388;2023-09-19T10:37:56;20.70;99.90
19152;DHT22;9708;53.114;9.388;2023-09-19T10:40:24;20.70;99.90
19152;DHT22;9708;53.114;9.388;2023-09-19T10:43:00;20.10;99.90
19152;DHT22;9708;53.114;9.388;2023-09-19T10:45:28;20.30;99.90
19152;DHT22;9708;53.114;9.388;2023-09-19T10:47:57;20.30;99.90
19152;DHT22;9708;53.114;9.388;2023-09-19T10:50:24;20.20;99.90
19152;DHT22;9708;53.114;9.388;2023-09-19T10:52:54;20.00;99.90
19152;DHT22;9708;53.114;9.388;2023-09-19T10:55:27;19.80;99.90
19152;DHT22;9708;53.114;9.388;2023-09-19T10:57:55;19.80;99.90
19152;DHT22;9708;53.114;9.388;2023-09-19T11:01:04;19.70;99.90
19152;DHT22;9708;53.114;9.388;2023-09-19T11:03:32;19.90;99.90
19152;DHT22;9708;53.114;9.388;2023-09-19T11:06:07;20.20;99.90
19152;DHT22;9708;53.114;9.388;2023-09-19T11:08:59;20.20;99.90
19152;DHT22;9708;53.114;9.388;2023-09-19T11:11:46;20.20;99.90
19152;DHT22;9708;53.114;9.388;2023-09-19T11:14:38;20.30;99.90
19152;DHT22;9708;53.114;9.388;2023-09-19T11:20:22;20.20;99.90
19152;DHT22;9708;53.114;9.388;2023-09-19T11:23:20;20.50;99.90
19152;DHT22;9708;53.114;9.388;2023-09-19T11:25:51;20.80;99.90
19152;DHT22;9708;53.114;9.388;2023-09-19T11:28:29;20.70;99.90
19152;DHT22;9708;53.114;9.388;2023-09-19T11:30:57;20.50;99.90
19152;DHT22;9708;53.114;9.388;2023-09-19T11:33:25;20.80;99.90
19152;DHT22;9708;53.114;9.388;2023-09-19T11:36:02;20.80;99.90
19152;DHT22;9708;53.114;9.388;2023-09-19T11:38:59;21.00;99.90
19152;DHT22;9708;53.114;9.388;2023-09-19T11:41:40;20.80;99.90
19152;DHT22;9708;53.114;9.388;2023-09-19T11:44:32;20.90;99.90
19152;DHT22;9708;53.114;9.388;2023-09-19T11:47:06;21.20;99.90
19152;DHT22;9708;53.114;9.388;2023-09-19T11:49:34;21.40;99.90
19152;DHT22;9708;53.114;9.388;2023-09-19T11:52:04;21.70;99.90
19152;DHT22;9708;53.114;9.388;2023-09-19T11:54:34;22.10;99.90
19152;DHT22;9708;53.114;9.388;2023-09-19T11:57:06;22.60;99.90
19152;DHT22;9708;53.114;9.388;2023-09-19T11:59:38;22.70;99.90
19152;DHT22;9708;53.114;9.388;2023-09-19T12:02:06;22.60;99.90
19152;DHT22;9708;53.114;9.388;2023-09-19T12:04:34;22.60;99.90
19152;DHT22;9708;53.114;9.388;2023-09-19T12:07:06;22.00;99.90
19152;DHT22;9708;53.114;9.388;2023-09-19T12:09:41;21.70;99.90
19152;DHT22;9708;53.114;9.388;2023-09-19T12:12:09;22.00;99.90
19152;DHT22;9708;53.114;9.388;2023-09-19T12:14:38;21.90;99.90
19152;DHT22;9708;53.114;9.388;2023-09-19T12:17:07;22.10;99.90
19152;DHT22;9708;53.114;9.388;2023-09-19T12:19:34;22.00;99.90
19152;DHT22;9708;53.114;9.388;2023-09-19T12:22:02;22.20;99.90
19152;DHT22;9708;53.114;9.388;2023-09-19T12:24:32;22.30;99.90
19152;DHT22;9708;53.114;9.388;2023-09-19T12:27:02;22.20;99.90
19152;DHT22;9708;53.114;9.388;2023-09-19T12:29:31;22.00;99.90
19152;DHT22;9708;53.114;9.388;2023-09-19T12:32:00;21.40;99.90
19152;DHT22;9708;53.114;9.388;2023-09-19T12:34:30;21.00;99.90
19152;DHT22;9708;53.114;9.388;2023-09-19T12:37:10;20.90;99.90
19152;DHT22;9708;53.114;9.388;2023-09-19T12:39:48;20.90;99.90
19152;DHT22;9708;53.114;9.388;2023-09-19T12:42:18;20.90;99.90
19152;DHT22;9708;53.114;9.388;2023-09-19T12:44:46;21.10;99.90
19152;DHT22;9708;53.114;9.388;2023-09-19T12:47:15;21.20;99.90
19152;DHT22;9708;53.114;9.388;2023-09-19T12:50:05;21.50;99.90
19152;DHT22;9708;53.114;9.388;2023-09-19T12:52:36;21.20;99.90
19152;DHT22;9708;53.114;9.388;2023-09-19T12:55:05;20.90;99.90
19152;DHT22;9708;53.114;9.388;2023-09-19T12:57:34;21.00;99.90
19152;DHT22;9708;53.114;9.388;2023-09-19T13:00:01;21.00;99.90
19152;DHT22;9708;53.114;9.388;2023-09-19T13:02:28;21.10;99.90
19152;DHT22;9708;53.114;9.388;2023-09-19T13:04:55;21.00;99.90
19152;DHT22;9708;53.114;9.388;2023-09-19T13:07:40;20.80;99.90
19152;DHT22;9708;53.114;9.388;2023-09-19T13:10:10;20.80;99.90
19152;DHT22;9708;53.114;9.388;2023-09-19T13:12:41;20.60;99.90
19152;DHT22;9708;53.114;9.388;2023-09-19T13:15:10;20.70;99.90
19152;DHT22;9708;53.114;9.388;2023-09-19T13:17:43;20.60;99.90
19152;DHT22;9708;53.114;9.388;2023-09-19T13:20:21;20.70;99.90
19152;DHT22;9708;53.114;9.388;2023-09-19T13:22:50;20.90;99.90
19152;DHT22;9708;53.114;9.388;2023-09-19T13:25:22;20.80;99.90
19152;DHT22;9708;53.114;9.388;2023-09-19T13:27:51;21.00;99.90
19152;DHT22;9708;53.114;9.388;2023-09-19T13:30:20;20.80;99.90
19152;DHT22;9708;53.114;9.388;2023-09-19T13:32:47;20.90;99.90
19152;DHT22;9708;53.114;9.388;2023-09-19T13:35:15;20.90;99.90
19152;DHT22;9708;53.114;9.388;2023-09-19T13:37:42;20.80;99.90
19152;DHT22;9708;53.114;9.388;2023-09-19T13:40:12;21.00;99.90
19152;DHT22;9708;53.114;9.388;2023-09-19T13:42:41;21.10;99.90
19152;DHT22;9708;53.114;9.388;2023-09-19T13:45:08;21.00;99.90
19152;DHT22;9708;53.114;9.388;2023-09-19T13:47:37;21.10;99.90
19152;DHT22;9708;53.114;9.388;2023-09-19T13:50:05;21.20;99.90
19152;DHT22;9708;53.114;9.388;2023-09-19T13:52:33;21.10;99.90
19152;DHT22;9708;53.114;9.388;2023-09-19T13:55:00;21.30;99.90
19152;DHT22;9708;53.114;9.388;2023-09-19T13:57:27;21.10;99.90
19152;DHT22;9708;53.114;9.388;2023-09-19T13:59:56;21.30;99.90
19152;DHT22;9708;53.114;9.388;2023-09-19T14:02:23;21.20;99.90
19152;DHT22;9708;53.114;9.388;2023-09-19T14:04:51;20.90;99.90
19152;DHT22;9708;53.114;9.388;2023-09-19T14:07:18;20.70;99.90
19152;DHT22;9708;53.114;9.388;2023-09-19T14:09:45;20.80;99.90
19152;DHT22;9708;53.114;9.388;2023-09-19T14:12:13;20.80;99.90
19152;DHT22;9708;53.114;9.388;2023-09-19T14:14:40;20.80;99.90
19152;DHT22;9708;53.114;9.388;2023-09-19T14:17:09;20.80;99.90
19152;DHT22;9708;53.114;9.388;2023-09-19T14:19:35;20.90;99.90
19152;DHT22;9708;53.114;9.388;2023-09-19T14:22:03;20.70;99.90
19152;DHT22;9708;53.114;9.388;2023-09-19T14:24:33;20.40;99.90
19152;DHT22;9708;53.114;9.388;2023-09-19T14:26:59;20.30;99.90
19152;DHT22;9708;53.114;9.388;2023-09-19T14:29:26;20.10;99.90
19152;DHT22;9708;53.114;9.388;2023-09-19T14:31:53;20.20;99.90
19152;DHT22;9708;53.114;9.388;2023-09-19T14:34:24;20.30;99.90
19152;DHT22;9708;53.114;9.388;2023-09-19T14:36:51;20.50;99.90
19152;DHT22;9708;53.114;9.388;2023-09-19T14:39:20;20.40;99.90
19152;DHT22;9708;53.114;9.388;2023-09-19T14:41:47;20.40;99.90
19152;DHT22;9708;53.114;9.388;2023-09-19T14:44:13;20.40;99.90
19152;DHT22;9708;53.114;9.388;2023-09-19T14:46:41;20.30;99.90
19152;DHT22;9708;53.114;9.388;2023-09-19T14:49:09;20.20;99.90
19152;DHT22;9708;53.114;9.388;2023-09-19T14:51:37;20.30;99.90
19152;DHT22;9708;53.114;9.388;2023-09-19T14:54:05;20.20;99.90
19152;DHT22;9708;53.114;9.388;2023-09-19T14:56:33;20.30;99.90
19152;DHT22;9708;53.114;9.388;2023-09-19T14:59:00;20.10;99.90
19152;DHT22;9708;53.114;9.388;2023-09-19T15:01:27;20.40;99.90
19152;DHT22;9708;53.114;9.388;2023-09-19T15:03:54;20.20;99.90
19152;DHT22;9708;53.114;9.388;2023-09-19T15:06:21;20.10;99.90
19152;DHT22;9708;53.114;9.388;2023-09-19T15:08:49;20.20;99.90
19152;DHT22;9708;53.114;9.388;2023-09-19T15:11:16;20.10;99.90
19152;DHT22;9708;53.114;9.388;2023-09-19T15:13:44;20.00;99.90
19152;DHT22;9708;53.114;9.388;2023-09-19T15:16:11;19.80;99.90
19152;DHT22;9708;53.114;9.388;2023-09-19T15:18:40;19.90;99.90
19152;DHT22;9708;53.114;9.388;2023-09-19T15:21:08;19.80;99.90
19152;DHT22;9708;53.114;9.388;2023-09-19T15:23:36;19.80;99.90
19152;DHT22;9708;53.114;9.388;2023-09-19T15:26:06;19.80;99.90
19152;DHT22;9708;53.114;9.388;2023-09-19T15:28:34;19.80;99.90
19152;DHT22;9708;53.114;9.388;2023-09-19T15:31:02;19.60;99.90
19152;DHT22;9708;53.114;9.388;2023-09-19T15:33:31;19.60;99.90
19152;DHT22;9708;53.114;9.388;2023-09-19T15:36:04;19.50;99.90
19152;DHT22;9708;53.114;9.388;2023-09-19T15:38:55;19.70;99.90
19152;DHT22;9708;53.114;9.388;2023-09-19T15:41:25;19.60;99.90
19152;DHT22;9708;53.114;9.388;2023-09-19T15:43:52;19.60;99.90
19152;DHT22;9708;53.114;9.388;2023-09-19T15:46:19;19.60;99.90
19152;DHT22;9708;53.114;9.388;2023-09-19T15:48:47;19.40;99.90
19152;DHT22;9708;53.114;9.388;2023-09-19T15:51:14;19.40;99.90
19152;DHT22;9708;53.114;9.388;2023-09-19T15:53:43;19.40;99.90
19152;DHT22;9708;53.114;9.388;2023-09-19T15:56:11;19.40;99.90
19152;DHT22;9708;53.114;9.388;2023-09-19T15:58:40;19.50;99.90
19152;DHT22;9708;53.114;9.388;2023-09-19T16:01:07;19.40;99.90
19152;DHT22;9708;53.114;9.388;2023-09-19T16:03:36;19.50;99.90